Time;durP1;ratioP1;P1;durP2;ratioP2;P2;SDS_P1;SDS_P2;PMS_P1;PMS_P2;Temp;Humidity;BMP_temperature;BMP_pressure;BME280_temperature;BME280_humidity;BME280_pressure;Samples;Min_cycle;Max_cycle;Signal;HPM_P1;HPM_P2
2020/12/30 11:44:29;;;;;;;9.00;2.43;;;;;;;;;;5024555;27;820066;-95
2020/12/30 11:46:58;;;;;;;16.23;2.57;;;;;;;;;;5007411;28;20466;-91
2020/12/30 11:49:27;;;;;;;12.97;3.70;;;;;;;;;;5011757;27;20467;-96
2020/12/30 11:51:54;;;;;;;6.80;2.57;;;;;;;;;;5004979;28;20457;-94
2020/12/30 11:54:20;;;;;;;6.17;2.50;;;;;;;;;;4955411;28;20472;-96
2020/12/30 11:56:54;;;;;;;6.00;2.47;;;;;;;;;;4947686;28;20480;-95
2020/12/30 11:59:21;;;;;;;5.30;2.27;;;;;;;;;;5054389;28;20469;-94
2020/12/30 12:01:50;;;;;;;7.70;2.50;;;;;;;;;;5018655;28;20498;-93
2020/12/30 12:04:16;;;;;;;13.10;3.07;;;;;;;;;;5019409;28;20444;-92
2020/12/30 12:09:27;;;;;;;9.03;2.63;;;;;;;;;;5027599;28;20533;-94
2020/12/30 12:11:58;;;;;;;8.50;2.60;;;;;;;;;;5004282;28;20454;-95
2020/12/30 12:14:24;;;;;;;9.07;2.53;;;;;;;;;;5015447;28;20468;-95
2020/12/30 12:16:52;;;;;;;5.50;2.20;;;;;;;;;;4991384;28;20485;-94
2020/12/30 12:19:20;;;;;;;12.20;4.03;;;;;;;;;;5000258;28;20475;-94
2020/12/30 12:21:49;;;;;;;6.90;3.20;;;;;;;;;;4980552;28;20455;-96
2020/12/30 12:24:15;;;;;;;10.70;2.53;;;;;;;;;;4989514;28;20465;-95
2020/12/30 12:26:44;;;;;;;7.03;2.30;;;;;;;;;;4971990;28;20451;-96
2020/12/30 12:29:39;;;;;;;4.33;2.13;;;;;;;;;;4998997;28;20436;-95
2020/12/30 12:32:20;;;;;;;8.37;2.10;;;;;;;;;;5031200;28;20490;-96
2020/12/30 12:34:47;;;;;;;9.40;2.83;;;;;;;;;;5008482;28;20467;-95
2020/12/30 12:37:14;;;;;;;6.80;2.13;;;;;;;;;;4948654;28;20447;-96
2020/12/30 12:39:46;;;;;;;14.67;2.60;;;;;;;;;;4979786;28;20476;-95
2020/12/30 12:42:15;;;;;;;9.77;2.50;;;;;;;;;;5012456;28;20472;-96
2020/12/30 12:44:41;;;;;;;8.77;2.80;;;;;;;;;;5073913;28;20508;-96
2020/12/30 12:47:07;;;;;;;6.93;2.40;;;;;;;;;;5019230;28;20494;-96
2020/12/30 12:49:35;;;;;;;12.97;3.03;;;;;;;;;;4985283;28;21149;-95
2020/12/30 12:52:04;;;;;;;10.97;2.87;;;;;;;;;;5008227;27;20444;-95
2020/12/30 12:54:37;;;;;;;6.83;2.43;;;;;;;;;;5040137;28;20471;-96
2020/12/30 12:57:04;;;;;;;13.93;3.30;;;;;;;;;;5036213;28;20567;-92
2020/12/30 12:59:32;;;;;;;8.90;2.57;;;;;;;;;;4984033;28;21046;-96
2020/12/30 13:02:13;;;;;;;12.33;2.47;;;;;;;;;;5014576;28;20532;-95
2020/12/30 13:04:44;;;;;;;7.87;2.70;;;;;;;;;;4967876;28;20479;-94
2020/12/30 13:07:18;;;;;;;7.13;2.40;;;;;;;;;;4958604;28;20449;-96
2020/12/30 13:09:51;;;;;;;11.50;3.10;;;;;;;;;;4996830;28;20456;-95
2020/12/30 13:12:20;;;;;;;8.97;2.97;;;;;;;;;;5001772;28;20448;-96
2020/12/30 13:14:47;;;;;;;8.40;3.17;;;;;;;;;;4995833;28;20451;-96
2020/12/30 13:17:17;;;;;;;8.33;3.00;;;;;;;;;;5041817;28;20491;-94
2020/12/30 13:19:51;;;;;;;15.13;2.97;;;;;;;;;;5046078;28;20463;-95
2020/12/30 13:22:17;;;;;;;11.20;3.10;;;;;;;;;;5005029;28;20462;-95
2020/12/30 13:24:43;;;;;;;7.03;3.10;;;;;;;;;;4977006;28;20464;-96
2020/12/30 13:27:10;;;;;;;13.97;3.30;;;;;;;;;;5036319;28;20453;-95
2020/12/30 13:29:37;;;;;;;9.90;2.70;;;;;;;;;;5007430;28;20459;-96
2020/12/30 13:32:04;;;;;;;16.00;3.10;;;;;;;;;;5046172;28;20452;-96
2020/12/30 13:34:30;;;;;;;7.03;2.37;;;;;;;;;;5030832;27;20476;-92
2020/12/30 13:37:00;;;;;;;14.27;3.10;;;;;;;;;;4986691;28;20451;-96
2020/12/30 13:42:13;;;;;;;8.87;3.17;;;;;;;;;;4975776;28;20453;-94
2020/12/30 13:44:43;;;;;;;10.47;2.37;;;;;;;;;;4972525;28;20445;-96
2020/12/30 13:47:12;;;;;;;14.83;3.73;;;;;;;;;;4979023;28;20474;-96
2020/12/30 13:49:40;;;;;;;9.53;2.93;;;;;;;;;;5021085;28;30330;-95
2020/12/30 13:54:51;;;;;;;9.83;2.90;;;;;;;;;;5097323;22;20964;-96
2020/12/30 13:57:27;;;;;;;8.93;3.17;;;;;;;;;;5080159;28;20485;-96
2020/12/30 13:59:54;;;;;;;10.27;2.83;;;;;;;;;;5072117;28;20486;-96
2020/12/30 14:02:29;;;;;;;12.17;3.20;;;;;;;;;;5085649;28;20446;-96
2020/12/30 14:04:59;;;;;;;9.90;3.10;;;;;;;;;;5092679;28;20437;-96
2020/12/30 14:07:28;;;;;;;14.93;2.70;;;;;;;;;;5093272;22;20493;-96
2020/12/30 14:09:58;;;;;;;11.43;2.90;;;;;;;;;;5049996;28;20557;-96
2020/12/30 14:12:32;;;;;;;7.47;3.00;;;;;;;;;;5051318;28;20455;-96
2020/12/30 14:15:00;;;;;;;6.80;2.87;;;;;;;;;;5144470;22;20463;-96
2020/12/30 14:17:28;;;;;;;10.03;2.73;;;;;;;;;;5029702;28;20455;-96
2020/12/30 14:19:54;;;;;;;13.90;3.23;;;;;;;;;;5027127;28;20475;-96
2020/12/30 14:22:20;;;;;;;10.50;4.57;;;;;;;;;;5031365;28;20463;-96
2020/12/30 14:24:57;;;;;;;8.40;2.90;;;;;;;;;;5027501;28;20448;-96
2020/12/30 14:27:40;;;;;;;5.70;2.47;;;;;;;;;;5035528;28;20444;-96
2020/12/30 14:30:15;;;;;;;11.13;3.07;;;;;;;;;;5031966;28;20471;-96
2020/12/30 14:32:50;;;;;;;8.00;3.57;;;;;;;;;;5031073;28;20522;-96
2020/12/30 14:35:29;;;;;;;17.90;4.00;;;;;;;;;;5032784;28;20462;-96
2020/12/30 14:38:08;;;;;;;8.10;3.23;;;;;;;;;;5033638;28;20450;-96
2020/12/30 14:40:43;;;;;;;6.20;2.83;;;;;;;;;;5032186;28;20462;-96
2020/12/30 14:43:10;;;;;;;8.30;3.20;;;;;;;;;;5029708;28;20491;-94
2020/12/30 14:45:38;;;;;;;11.93;3.13;;;;;;;;;;5020978;28;20475;-94
2020/12/30 14:48:04;;;;;;;8.10;4.27;;;;;;;;;;5025520;28;20467;-96
2020/12/30 14:50:32;;;;;;;15.17;3.03;;;;;;;;;;5027730;28;20821;-94
2020/12/30 14:52:59;;;;;;;10.43;2.73;;;;;;;;;;5018216;28;20985;-94
2020/12/30 14:55:27;;;;;;;12.67;3.77;;;;;;;;;;5023854;28;20464;-96
2020/12/30 14:57:56;;;;;;;9.93;3.60;;;;;;;;;;5025043;28;20499;-96
2020/12/30 15:00:22;;;;;;;19.80;3.67;;;;;;;;;;5024772;28;20475;-96
2020/12/30 15:02:56;;;;;;;12.33;3.63;;;;;;;;;;5025052;28;20494;-96
2020/12/30 15:05:26;;;;;;;18.43;3.90;;;;;;;;;;5026851;28;20483;-95
2020/12/30 15:07:52;;;;;;;11.97;3.70;;;;;;;;;;5027343;28;20443;-96
2020/12/30 15:10:18;;;;;;;9.10;3.30;;;;;;;;;;5027179;28;20505;-95
2020/12/30 15:12:47;;;;;;;12.43;3.60;;;;;;;;;;5031667;28;20459;-96
2020/12/30 15:15:18;;;;;;;7.93;3.20;;;;;;;;;;5029027;28;20521;-96
2020/12/30 15:17:44;;;;;;;10.40;4.10;;;;;;;;;;5022995;28;20463;-95
2020/12/30 15:20:13;;;;;;;6.93;3.20;;;;;;;;;;5024599;28;20533;-95
2020/12/30 15:22:46;;;;;;;13.47;3.37;;;;;;;;;;5030249;28;20494;-96
2020/12/30 15:25:15;;;;;;;14.07;3.57;;;;;;;;;;5025732;28;20469;-96
2020/12/30 15:27:42;;;;;;;12.70;3.60;;;;;;;;;;5026976;28;20531;-96
2020/12/30 15:30:08;;;;;;;11.00;3.70;;;;;;;;;;5024183;28;20464;-95
2020/12/30 15:33:00;;;;;;;15.13;4.07;;;;;;;;;;5026316;28;20458;-96
2020/12/30 15:35:26;;;;;;;10.70;3.40;;;;;;;;;;5024356;28;20502;-95
2020/12/30 15:37:53;;;;;;;10.00;3.40;;;;;;;;;;5033979;22;20443;-96
2020/12/30 15:40:19;;;;;;;9.50;4.20;;;;;;;;;;5028529;28;20493;-96
2020/12/30 15:42:46;;;;;;;4.53;3.20;;;;;;;;;;5024102;28;20513;-96
2020/12/30 15:45:12;;;;;;;10.43;3.80;;;;;;;;;;5020709;28;20492;-94
2020/12/30 15:47:39;;;;;;;13.20;5.20;;;;;;;;;;5016857;28;20452;-94
2020/12/30 15:50:05;;;;;;;11.97;5.07;;;;;;;;;;5004178;28;20441;-96
2020/12/30 15:52:34;;;;;;;7.27;3.67;;;;;;;;;;5016774;28;20495;-96
2020/12/30 15:55:02;;;;;;;13.07;4.00;;;;;;;;;;5028728;28;20546;-96
2020/12/30 15:57:33;;;;;;;13.13;4.70;;;;;;;;;;5023098;28;20558;-95
2020/12/30 16:00:04;;;;;;;14.23;5.50;;;;;;;;;;5030519;28;20431;-96
2020/12/30 16:02:30;;;;;;;11.53;3.80;;;;;;;;;;5028959;28;20459;-96
2020/12/30 16:05:03;;;;;;;11.47;3.70;;;;;;;;;;5082261;22;20476;-96
2020/12/30 16:07:30;;;;;;;9.73;3.40;;;;;;;;;;5048422;28;20443;-96
2020/12/30 16:10:11;;;;;;;8.13;3.37;;;;;;;;;;5041924;28;20493;-94
2020/12/30 16:15:19;;;;;;;12.90;3.37;;;;;;;;;;5073812;22;20490;-96
2020/12/30 16:17:45;;;;;;;19.37;8.00;;;;;;;;;;5031258;28;20477;-96
2020/12/30 16:20:12;;;;;;;11.70;6.03;;;;;;;;;;5031251;28;20466;-96
2020/12/30 16:22:42;;;;;;;18.67;9.00;;;;;;;;;;5029112;28;20516;-94
2020/12/30 16:25:11;;;;;;;17.63;6.17;;;;;;;;;;5058651;22;20585;-96
2020/12/30 16:27:37;;;;;;;11.67;3.73;;;;;;;;;;5068382;28;20462;-96
2020/12/30 16:30:03;;;;;;;17.83;7.70;;;;;;;;;;5064537;28;20466;-94
2020/12/30 16:32:43;;;;;;;;;;;;;;;;;;;;;
2020/12/30 16:35:26;;;;;;;8.33;3.40;;;;;;;;;;5068950;28;20473;-96
2020/12/30 16:37:52;;;;;;;13.50;6.43;;;;;;;;;;5068745;22;20504;-96
2020/12/30 16:40:27;;;;;;;11.13;3.93;;;;;;;;;;5053592;28;20457;-95
2020/12/30 16:42:57;;;;;;;19.37;3.60;;;;;;;;;;5049924;28;20450;-96
2020/12/30 16:45:25;;;;;;;8.70;3.83;;;;;;;;;;5028883;28;20447;-96
2020/12/30 16:47:51;;;;;;;13.07;3.50;;;;;;;;;;5038119;28;20458;-95
2020/12/30 16:50:31;;;;;;;12.53;3.50;;;;;;;;;;5052155;28;20465;-96
2020/12/30 16:52:57;;;;;;;15.47;3.77;;;;;;;;;;5032613;28;20482;-96
2020/12/30 16:55:28;;;;;;;11.97;6.00;;;;;;;;;;5051898;28;20439;-96
2020/12/30 16:57:55;;;;;;;25.17;6.87;;;;;;;;;;5051978;28;21039;-96
2020/12/30 17:00:21;;;;;;;14.30;5.57;;;;;;;;;;5050926;28;20432;-95
2020/12/30 17:03:02;;;;;;;16.93;4.90;;;;;;;;;;5050410;28;20480;-94
2020/12/30 17:05:50;;;;;;;12.00;3.40;;;;;;;;;;5049813;28;20454;-96
2020/12/30 17:08:20;;;;;;;11.37;3.80;;;;;;;;;;5053924;28;20443;-96
2020/12/30 17:13:28;;;;;;;12.03;4.03;;;;;;;;;;5050860;28;20443;-96
2020/12/30 17:15:57;;;;;;;14.77;7.13;;;;;;;;;;5049991;28;20478;-96
2020/12/30 17:18:23;;;;;;;20.17;6.83;;;;;;;;;;5049572;28;20503;-96
2020/12/30 17:20:56;;;;;;;13.97;5.70;;;;;;;;;;5046683;28;20468;-96
2020/12/30 17:23:25;;;;;;;19.40;6.73;;;;;;;;;;5049487;28;20494;-95
2020/12/30 17:25:52;;;;;;;11.80;6.63;;;;;;;;;;5046792;28;20534;-96
2020/12/30 17:28:18;;;;;;;18.23;7.27;;;;;;;;;;5048527;28;20504;-94
2020/12/30 17:30:44;;;;;;;13.73;3.80;;;;;;;;;;5048481;28;20455;-96
2020/12/30 17:33:11;;;;;;;12.93;4.07;;;;;;;;;;5049831;28;20442;-96
2020/12/30 17:35:43;;;;;;;11.07;4.10;;;;;;;;;;5051213;28;20462;-94
2020/12/30 17:38:15;;;;;;;11.93;3.87;;;;;;;;;;5047544;28;20482;-95
2020/12/30 17:40:44;;;;;;;16.07;4.40;;;;;;;;;;5049150;28;20470;-96
2020/12/30 17:43:10;;;;;;;9.20;3.47;;;;;;;;;;5044351;28;20490;-94
2020/12/30 17:45:37;;;;;;;7.90;3.30;;;;;;;;;;5048354;28;20490;-96
2020/12/30 17:48:05;;;;;;;7.70;3.33;;;;;;;;;;5055407;23;20504;-96
2020/12/30 17:53:20;;;;;;;18.80;3.40;;;;;;;;;;5078194;28;20472;-96
2020/12/30 17:55:49;;;;;;;10.70;4.77;;;;;;;;;;5068716;28;20459;-96
2020/12/30 17:58:17;;;;;;;12.70;3.43;;;;;;;;;;5074947;28;20534;-96
2020/12/30 18:00:43;;;;;;;13.03;3.60;;;;;;;;;;5070082;28;20434;-93
2020/12/30 18:03:11;;;;;;;22.17;5.30;;;;;;;;;;5081703;28;20511;-96
2020/12/30 18:05:39;;;;;;;14.07;4.10;;;;;;;;;;5069769;28;20446;-95
2020/12/30 18:08:11;;;;;;;12.57;4.03;;;;;;;;;;5080229;28;20534;-95
2020/12/30 18:10:53;;;;;;;11.23;3.63;;;;;;;;;;5067049;28;20454;-95
2020/12/30 18:13:20;;;;;;;15.13;3.60;;;;;;;;;;5083886;28;20475;-96
2020/12/30 18:15:51;;;;;;;14.07;3.03;;;;;;;;;;5078786;28;20459;-96
2020/12/30 18:18:26;;;;;;;9.20;4.60;;;;;;;;;;5068873;28;20442;-95
2020/12/30 18:20:53;;;;;;;11.07;3.67;;;;;;;;;;5068626;28;20458;-95
2020/12/30 18:23:20;;;;;;;19.33;8.30;;;;;;;;;;5066519;28;20491;-95
2020/12/30 18:25:47;;;;;;;9.10;5.63;;;;;;;;;;5067764;28;20453;-96
2020/12/30 18:28:18;;;;;;;16.10;9.07;;;;;;;;;;5069219;28;20478;-96
2020/12/30 18:30:52;;;;;;;18.50;4.20;;;;;;;;;;5068592;28;20496;-95
2020/12/30 18:33:18;;;;;;;18.23;9.03;;;;;;;;;;5065298;28;20457;-96
2020/12/30 18:35:44;;;;;;;12.83;5.17;;;;;;;;;;5068902;28;20446;-96
2020/12/30 18:38:12;;;;;;;11.90;4.80;;;;;;;;;;5067205;28;20453;-96
2020/12/30 18:40:43;;;;;;;12.53;4.13;;;;;;;;;;5070055;28;20461;-96
2020/12/30 18:43:12;;;;;;;12.17;4.57;;;;;;;;;;5067246;28;20496;-95
2020/12/30 18:45:39;;;;;;;10.20;3.13;;;;;;;;;;5069942;22;20490;-96
2020/12/30 18:48:07;;;;;;;8.43;3.50;;;;;;;;;;5045213;28;20498;-96
2020/12/30 18:50:46;;;;;;;11.20;3.60;;;;;;;;;;5049012;28;20532;-96
2020/12/30 18:53:15;;;;;;;16.60;4.87;;;;;;;;;;5048193;28;20452;-96
2020/12/30 18:58:24;;;;;;;13.00;3.93;;;;;;;;;;5054302;28;20468;-96
2020/12/30 19:00:54;;;;;;;16.30;4.20;;;;;;;;;;5048462;28;20469;-96
2020/12/30 19:03:22;;;;;;;13.07;4.60;;;;;;;;;;5053616;28;20537;-94
2020/12/30 19:05:49;;;;;;;15.10;3.37;;;;;;;;;;5058048;28;20442;-96
2020/12/30 19:08:16;;;;;;;11.47;3.30;;;;;;;;;;5050488;28;20454;-95
2020/12/30 19:10:43;;;;;;;12.23;3.60;;;;;;;;;;5050276;28;20477;-96
2020/12/30 19:13:11;;;;;;;14.40;3.87;;;;;;;;;;5062548;28;20488;-95
2020/12/30 19:15:37;;;;;;;8.97;3.27;;;;;;;;;;5056484;28;20494;-94
2020/12/30 19:18:08;;;;;;;11.67;2.87;;;;;;;;;;5048768;28;20454;-96
2020/12/30 19:20:46;;;;;;;15.30;4.13;;;;;;;;;;5048376;28;20459;-96
2020/12/30 19:23:15;;;;;;;16.83;4.83;;;;;;;;;;5049672;28;20490;-95
2020/12/30 19:25:48;;;;;;;9.47;3.03;;;;;;;;;;5049448;28;20457;-95
2020/12/30 19:28:15;;;;;;;9.33;3.73;;;;;;;;;;5048940;28;20458;-94
2020/12/30 19:30:42;;;;;;;13.10;5.33;;;;;;;;;;5049767;28;20445;-96
2020/12/30 19:33:08;;;;;;;19.33;4.17;;;;;;;;;;5045171;28;20452;-94
2020/12/30 19:35:37;;;;;;;10.17;3.77;;;;;;;;;;5046513;28;20456;-96
2020/12/30 19:38:05;;;;;;;12.53;4.47;;;;;;;;;;5046112;28;21071;-96
2020/12/30 19:40:31;;;;;;;15.07;3.43;;;;;;;;;;5046167;28;20458;-96
2020/12/30 19:42:58;;;;;;;13.20;3.90;;;;;;;;;;5043011;28;20477;-96
2020/12/30 19:45:24;;;;;;;14.07;4.37;;;;;;;;;;5049320;28;20497;-92
2020/12/30 19:47:50;;;;;;;11.83;3.60;;;;;;;;;;5049339;28;20451;-95
2020/12/30 19:52:57;;;;;;;16.00;5.27;;;;;;;;;;5049767;28;20546;-96
2020/12/30 19:55:42;;;;;;;7.37;3.20;;;;;;;;;;5046928;28;20467;-95
2020/12/30 19:58:11;;;;;;;14.93;3.60;;;;;;;;;;5048264;28;20465;-96
2020/12/30 20:00:54;;;;;;;14.80;3.30;;;;;;;;;;5049654;28;20460;-96
2020/12/30 20:03:20;;;;;;;12.13;3.53;;;;;;;;;;5048115;28;20503;-93
2020/12/30 20:05:46;;;;;;;12.60;3.50;;;;;;;;;;5052643;28;20451;-96
2020/12/30 20:08:33;;;;;;;15.17;5.17;;;;;;;;;;5053021;28;20481;-96
2020/12/30 20:11:03;;;;;;;10.00;3.20;;;;;;;;;;5049276;28;20449;-96
2020/12/30 20:13:31;;;;;;;10.97;3.07;;;;;;;;;;5052606;28;20452;-94
2020/12/30 20:15:57;;;;;;;12.87;3.10;;;;;;;;;;5046282;28;20462;-94
2020/12/30 20:21:20;;;;;;;8.90;2.90;;;;;;;;;;5050446;28;20493;-96
2020/12/30 20:23:48;;;;;;;16.10;4.00;;;;;;;;;;5051857;28;20499;-96
2020/12/30 20:26:16;;;;;;;9.63;2.90;;;;;;;;;;5054201;28;20438;-96
2020/12/30 20:31:23;;;;;;;15.60;4.00;;;;;;;;;;5074396;22;20502;-94
2020/12/30 20:33:52;;;;;;;13.63;3.80;;;;;;;;;;5092023;28;20456;-96
2020/12/30 20:36:22;;;;;;;11.50;3.00;;;;;;;;;;5093391;28;20452;-95
2020/12/30 20:38:50;;;;;;;11.70;3.57;;;;;;;;;;5091623;28;20453;-96
2020/12/30 20:41:21;;;;;;;10.67;3.23;;;;;;;;;;5090031;28;20443;-96
2020/12/30 20:46:29;;;;;;;13.57;4.37;;;;;;;;;;5090109;28;20534;-95
2020/12/30 20:48:55;;;;;;;11.50;3.00;;;;;;;;;;5090336;28;20460;-95
2020/12/30 20:51:21;;;;;;;8.60;4.20;;;;;;;;;;5089858;28;20456;-95
2020/12/30 20:53:47;;;;;;;11.63;3.37;;;;;;;;;;5085828;28;20444;-96
2020/12/30 20:56:14;;;;;;;16.73;3.40;;;;;;;;;;5090847;28;20468;-96
2020/12/30 20:58:43;;;;;;;15.17;3.20;;;;;;;;;;5092688;28;20520;-95
2020/12/30 21:01:09;;;;;;;11.80;3.73;;;;;;;;;;5087683;28;20486;-96
2020/12/30 21:03:36;;;;;;;10.17;3.20;;;;;;;;;;5091636;28;20489;-96
2020/12/30 21:06:04;;;;;;;10.13;3.83;;;;;;;;;;5089503;28;20453;-95
2020/12/30 21:08:30;;;;;;;11.27;3.03;;;;;;;;;;5088786;28;20449;-93
2020/12/30 21:10:57;;;;;;;13.27;3.57;;;;;;;;;;5086330;28;20452;-95
2020/12/30 21:13:23;;;;;;;11.47;3.43;;;;;;;;;;5085969;28;20449;-95
2020/12/30 21:15:51;;;;;;;13.60;3.67;;;;;;;;;;5088511;28;20475;-94
2020/12/30 21:18:17;;;;;;;21.23;3.70;;;;;;;;;;5087800;28;20467;-94
2020/12/30 21:20:47;;;;;;;20.53;4.07;;;;;;;;;;5088924;28;20466;-95
2020/12/30 21:23:13;;;;;;;10.83;3.60;;;;;;;;;;5090730;28;20550;-94
2020/12/30 21:25:48;;;;;;;14.37;3.50;;;;;;;;;;5092994;28;20458;-96
2020/12/30 21:28:14;;;;;;;18.07;4.40;;;;;;;;;;5091314;28;20467;-96
2020/12/30 21:30:41;;;;;;;11.73;3.70;;;;;;;;;;5090758;28;20469;-95
2020/12/30 21:33:08;;;;;;;15.23;4.03;;;;;;;;;;5094628;28;20464;-94
2020/12/30 21:35:36;;;;;;;16.07;4.00;;;;;;;;;;5089603;28;20452;-95
2020/12/30 21:38:06;;;;;;;11.23;3.67;;;;;;;;;;5090670;28;20464;-96
2020/12/30 21:43:15;;;;;;;16.83;3.80;;;;;;;;;;5122142;22;20556;-96
2020/12/30 21:45:44;;;;;;;8.77;2.70;;;;;;;;;;5069745;28;20458;-95
2020/12/30 21:48:13;;;;;;;10.57;3.60;;;;;;;;;;5083768;22;20496;-95
2020/12/30 21:51:02;;;;;;;10.87;3.73;;;;;;;;;;5089822;28;20442;-95
2020/12/30 21:53:30;;;;;;;13.10;3.77;;;;;;;;;;5092155;28;20448;-96
2020/12/30 21:55:56;;;;;;;14.67;3.60;;;;;;;;;;5089298;28;20520;-94
2020/12/30 21:58:43;;;;;;;19.47;4.37;;;;;;;;;;5088887;28;20451;-96
2020/12/30 22:01:11;;;;;;;7.77;3.30;;;;;;;;;;5086290;28;20451;-97
2020/12/30 22:03:39;;;;;;;10.43;3.23;;;;;;;;;;5091757;28;20500;-96
2020/12/30 22:06:10;;;;;;;10.33;2.97;;;;;;;;;;5089269;28;20464;-96
2020/12/30 22:08:36;;;;;;;10.43;3.17;;;;;;;;;;5088590;28;20540;-95
2020/12/30 22:11:06;;;;;;;14.37;3.00;;;;;;;;;;5088472;28;20511;-96
2020/12/30 22:13:33;;;;;;;13.00;3.77;;;;;;;;;;5087892;28;20451;-94
2020/12/30 22:16:08;;;;;;;13.77;4.30;;;;;;;;;;5088560;28;20446;-94
2020/12/30 22:18:35;;;;;;;10.17;3.00;;;;;;;;;;5042800;22;20495;-92
2020/12/30 22:21:03;;;;;;;9.30;3.33;;;;;;;;;;5024506;28;20452;-96
2020/12/30 22:23:29;;;;;;;12.97;3.30;;;;;;;;;;5022136;28;20498;-96
2020/12/30 22:25:55;;;;;;;15.43;3.30;;;;;;;;;;5025671;28;20448;-96
2020/12/30 22:28:21;;;;;;;9.47;3.47;;;;;;;;;;5028378;28;20444;-95
2020/12/30 22:30:48;;;;;;;12.57;3.60;;;;;;;;;;5030057;28;20443;-96
2020/12/30 22:33:21;;;;;;;14.30;3.50;;;;;;;;;;5036773;28;20511;-96
2020/12/30 22:35:47;;;;;;;12.50;3.33;;;;;;;;;;5027995;28;20513;-96
2020/12/30 22:38:20;;;;;;;12.33;3.33;;;;;;;;;;5032344;28;20462;-96
2020/12/30 22:40:46;;;;;;;8.13;3.53;;;;;;;;;;5031762;28;20455;-95
2020/12/30 22:43:12;;;;;;;15.03;3.70;;;;;;;;;;5026909;28;20510;-95
2020/12/30 22:45:43;;;;;;;13.87;3.93;;;;;;;;;;5023205;28;20462;-95
2020/12/30 22:48:16;;;;;;;6.60;2.80;;;;;;;;;;5024296;28;20467;-96
2020/12/30 22:50:42;;;;;;;16.07;5.00;;;;;;;;;;5025988;28;20456;-96
2020/12/30 22:53:10;;;;;;;9.03;3.10;;;;;;;;;;5028328;28;20515;-96
2020/12/30 22:55:43;;;;;;;11.23;3.40;;;;;;;;;;5065989;23;20554;-96
2020/12/30 22:58:20;;;;;;;6.80;2.87;;;;;;;;;;5071272;28;20457;-96
2020/12/30 23:00:48;;;;;;;6.17;3.50;;;;;;;;;;5065636;28;20449;-95
2020/12/30 23:03:14;;;;;;;11.87;3.70;;;;;;;;;;5062201;28;20542;-94
2020/12/30 23:05:40;;;;;;;13.67;3.60;;;;;;;;;;5067466;28;20476;-96
2020/12/30 23:08:06;;;;;;;12.40;3.50;;;;;;;;;;5063229;28;20476;-93
2020/12/30 23:10:33;;;;;;;15.70;3.37;;;;;;;;;;5065760;28;20829;-94
2020/12/30 23:13:00;;;;;;;13.57;3.40;;;;;;;;;;5064419;28;20481;-94
2020/12/30 23:15:26;;;;;;;14.03;3.73;;;;;;;;;;5067320;28;20449;-94
2020/12/30 23:17:53;;;;;;;12.17;3.40;;;;;;;;;;5063472;28;20479;-93
2020/12/30 23:20:20;;;;;;;14.10;3.07;;;;;;;;;;5064655;28;20446;-95
2020/12/30 23:22:48;;;;;;;12.53;3.40;;;;;;;;;;5065449;28;20466;-95
2020/12/30 23:25:14;;;;;;;8.40;3.80;;;;;;;;;;5062797;28;20523;-96
2020/12/30 23:27:43;;;;;;;7.33;3.20;;;;;;;;;;5052226;28;20498;-94
2020/12/30 23:30:12;;;;;;;10.07;2.93;;;;;;;;;;5055006;28;20474;-96
2020/12/30 23:32:38;;;;;;;7.77;3.40;;;;;;;;;;5066551;28;20476;-96
2020/12/30 23:35:06;;;;;;;11.33;3.40;;;;;;;;;;5063827;28;20450;-96
2020/12/30 23:37:33;;;;;;;10.87;4.03;;;;;;;;;;5065371;28;20451;-96
2020/12/30 23:40:02;;;;;;;10.83;3.37;;;;;;;;;;5063393;28;20491;-96
2020/12/30 23:45:09;;;;;;;11.53;3.40;;;;;;;;;;5091134;28;20465;-95
2020/12/30 23:47:36;;;;;;;13.70;3.07;;;;;;;;;;5078587;22;20460;-96
2020/12/30 23:50:02;;;;;;;13.30;5.40;;;;;;;;;;5039533;28;20513;-96
2020/12/30 23:52:30;;;;;;;8.47;3.43;;;;;;;;;;5036419;28;20540;-96
2020/12/30 23:54:56;;;;;;;9.37;3.27;;;;;;;;;;5045852;28;20529;-94
2020/12/30 23:57:22;;;;;;;13.83;3.13;;;;;;;;;;5040312;28;20465;-94
2020/12/30 23:59:48;;;;;;;12.10;3.10;;;;;;;;;;5043542;28;20477;-96
